Airfield :
LOGIN :

Register | Disclaimer

   EN    FR    IT 

 










Legend :    VFR   Marginal VFR   IFR   Intensive IFR   Very Intensive IFR
Visi :
Ceiling :
>= 8 km
>= 3000ft
5 to 8 km
1000 to 3000 ft
1500m to 5 km
500 to 1000 ft
800 to 1500m
200 to 500 ft
< 800m
< 200 ft
Symbols :   Thunderstorms  Fog  Heavy snow  Heavy precipitations  Wind > 20 kt
SIGMETs :     Misc.  Thunderstorms  Icing  Turbulence  Mountain Waves  Volcanic Ashes






- Airport Elevation : 1106 ft


LFSO - Nancy / Ochey

CURRENT METAR :
  • 111630Z AUTO 15006KT CAVOK 30/15 Q1014 TEMPO VRB20G35KT 2000 TSRAGR SCT070CB

EXPIRED METARs :
  • 111600Z AUTO 16007KT CAVOK 31/14 Q1014 TEMPO VRB20G35KT 2000 TSRAGR SCT070CB
  • 111530Z AUTO 12006KT CAVOK 31/15 Q1015 TEMPO VRB20G35KT 2000 TSRAGR SCT070CB
  • 111500Z AUTO 11005KT 9999 ///CB 30/15 Q1015 TEMPO VRB20G35KT 2000 TSRAGR
  • 111430Z AUTO 15007KT 090V230 9999 VCTS FEW044/// SCT100/// BKN140/// ///CB 29/14 Q1015 TEMPO VRB20G35KT 2000 TSRAGR
  • 111400Z AUTO 18010KT 150V210 9999 VCTS ///CB 30/12 Q1016 TEMPO VRB20G35KT 2000 TSRAGR

TAF TAF LFSO
Valid from the 11 at 15:00 until the 12 at 15:00 UTC


111400Z 1115/1215 20010KT 9999 FEW080TCU
PROB40
TEMPO 1115/1121 23015G25KT 4000 SHRA SCT070CB
PROB30
TEMPO 1115/1120 VRB20G35KT 2000 TSRAGR
BECMG 1121/1123 CAVOK
PROB40
TEMPO 1212/1215 20015G25KT 4000 SHRA SCT090CB



MET'MAP, your aeronautical weather chart ! - Copyright ORBIFLY December 2007 - Disclaimer

ORBIFLY MET'MAP TEAM :

Programming & Development : Alexandra Zaïnal
Concept & original design : Baudouin d'Aumeries
Assistance for programming : Marc-Olivier Méhu
Technical & hardware support : Manuel Goepfert

Contact : metmap@orbifly.com




SOURCES & CREDITS :

   NOAA